Time;durP1;ratioP1;P1;durP2;ratioP2;P2;SDS_P1;SDS_P2;PMS_P1;PMS_P2;Temp;Humidity;BMP_temperature;BMP_pressure;BME280_temperature;BME280_humidity;BME280_pressure;Samples;Min_cycle;Max_cycle;Signal;HPM_P1;HPM_P2
2022/03/18 00:02:03;;;;;;;19.52;9.98;;;8.40;59.90;;;;;;5053816;28;20045;-67
2022/03/18 00:04:29;;;;;;;19.05;9.27;;;8.40;59.90;;;;;;5055126;28;20025;-67
2022/03/18 00:06:55;;;;;;;16.38;9.13;;;8.40;60.00;;;;;;5038213;28;20025;-68
2022/03/18 00:09:21;;;;;;;19.92;9.95;;;8.40;60.10;;;;;;5037208;28;20039;-67
2022/03/18 00:11:47;;;;;;;21.30;10.00;;;8.40;60.10;;;;;;5034570;28;20098;-68
2022/03/18 00:14:13;;;;;;;19.05;9.90;;;8.40;60.30;;;;;;5037387;28;20445;-67
2022/03/18 00:16:39;;;;;;;23.20;11.10;;;8.30;60.30;;;;;;5042913;28;20127;-67
2022/03/18 00:19:04;;;;;;;23.42;11.02;;;8.30;60.40;;;;;;5039228;28;20080;-67
2022/03/18 00:21:30;;;;;;;22.90;11.00;;;8.30;60.50;;;;;;5038155;28;20037;-67
2022/03/18 00:23:56;;;;;;;21.70;10.43;;;8.30;60.50;;;;;;5041537;28;20557;-67
2022/03/18 00:26:22;;;;;;;21.55;10.23;;;8.20;60.60;;;;;;5027569;28;20026;-68
2022/03/18 00:28:47;;;;;;;21.35;10.93;;;8.20;60.60;;;;;;5041393;28;20044;-67
2022/03/18 00:31:13;;;;;;;20.58;10.85;;;8.20;60.70;;;;;;5054202;28;20069;-68
2022/03/18 00:33:38;;;;;;;22.88;10.85;;;8.20;60.70;;;;;;5040622;28;20474;-68
2022/03/18 00:36:04;;;;;;;20.67;10.18;;;8.20;60.90;;;;;;5036488;28;20129;-68
2022/03/18 00:38:31;;;;;;;20.35;10.73;;;8.10;60.90;;;;;;5036445;28;20382;-68
2022/03/18 00:40:57;;;;;;;21.45;10.07;;;8.10;61.00;;;;;;5042371;28;20057;-67
2022/03/18 00:43:23;;;;;;;18.15;8.73;;;8.10;61.10;;;;;;5054779;28;20524;-68
2022/03/18 00:45:49;;;;;;;18.75;8.55;;;8.10;61.10;;;;;;5051307;28;20023;-67
2022/03/18 00:53:43;;;;;;;17.35;7.72;;;8.10;61.30;;;;;;5054438;28;20154;-67
2022/03/18 00:56:08;;;;;;;16.05;7.88;;;8.00;61.30;;;;;;5036442;28;20142;-67
2022/03/18 00:58:34;;;;;;;13.90;6.70;;;8.00;61.50;;;;;;5038223;28;20026;-67
2022/03/18 01:00:59;;;;;;;16.65;6.68;;;8.00;61.60;;;;;;5037384;28;20472;-68
2022/03/18 01:03:25;;;;;;;15.65;6.03;;;8.00;61.60;;;;;;5037324;28;20041;-67
2022/03/18 01:05:51;;;;;;;13.82;6.05;;;8.00;61.60;;;;;;5036344;28;20034;-67
2022/03/18 01:08:16;;;;;;;12.63;5.07;;;8.00;61.60;;;;;;5035307;28;20098;-68
2022/03/18 01:10:42;;;;;;;11.40;4.70;;;8.00;61.60;;;;;;5036236;28;20354;-67
2022/03/18 01:13:08;;;;;;;12.52;4.88;;;8.00;61.60;;;;;;5036095;28;20091;-67
2022/03/18 01:15:33;;;;;;;11.48;4.00;;;8.00;61.60;;;;;;5038622;28;20041;-67
2022/03/18 01:17:59;;;;;;;11.57;3.95;;;8.00;61.70;;;;;;5034974;28;20033;-68
2022/03/18 01:20:25;;;;;;;10.27;3.58;;;8.00;61.80;;;;;;5048979;28;20028;-68
2022/03/18 01:22:51;;;;;;;9.95;3.50;;;8.00;61.80;;;;;;5054081;28;20041;-68
2022/03/18 01:25:17;;;;;;;9.25;3.58;;;8.00;61.80;;;;;;5055008;28;20029;-68
2022/03/18 01:27:42;;;;;;;8.63;2.97;;;8.00;61.90;;;;;;5054752;28;20024;-68
2022/03/18 01:30:09;;;;;;;9.65;3.80;;;7.90;61.90;;;;;;5040101;28;20033;-68
2022/03/18 01:32:34;;;;;;;10.68;3.28;;;7.90;61.90;;;;;;5036558;28;20033;-67
2022/03/18 01:35:00;;;;;;;10.80;3.35;;;7.90;62.00;;;;;;5048582;28;20037;-68
2022/03/18 01:37:26;;;;;;;11.48;4.43;;;7.90;62.00;;;;;;5055651;28;20051;-68
2022/03/18 01:39:52;;;;;;;10.05;3.67;;;7.80;62.10;;;;;;5054822;28;20059;-68
2022/03/18 01:42:17;;;;;;;11.95;4.07;;;7.80;62.10;;;;;;5052745;28;20041;-68
2022/03/18 01:44:44;;;;;;;9.93;3.55;;;7.80;62.20;;;;;;5049716;28;20108;-68
2022/03/18 01:47:10;;;;;;;10.35;4.00;;;7.80;62.30;;;;;;5050110;28;20040;-68
2022/03/18 01:49:37;;;;;;;7.88;3.40;;;7.70;62.30;;;;;;5054007;28;20029;-68
2022/03/18 01:52:05;;;;;;;12.35;4.70;;;7.70;62.40;;;;;;5053492;28;20033;-68
2022/03/18 01:54:49;;;;;;;11.38;4.60;;;7.70;62.40;;;;;;5052318;28;20068;-68
2022/03/18 01:57:23;;;;;;;12.05;4.65;;;7.60;62.40;;;;;;5040833;28;20053;-68
2022/03/18 01:59:50;;;;;;;14.50;4.90;;;7.60;62.50;;;;;;5037049;28;20406;-68
2022/03/18 02:02:17;;;;;;;12.60;4.72;;;7.60;62.60;;;;;;5035940;28;20453;-67
2022/03/18 02:04:44;;;;;;;11.93;4.03;;;7.60;62.50;;;;;;5035310;28;20414;-68
2022/03/18 02:07:10;;;;;;;12.30;4.63;;;7.60;62.60;;;;;;5048233;28;20124;-68
2022/03/18 02:09:37;;;;;;;9.13;3.50;;;7.50;62.70;;;;;;5046645;28;20021;-68
2022/03/18 02:12:04;;;;;;;12.75;4.97;;;7.50;62.80;;;;;;5035985;28;20021;-68
2022/03/18 02:14:36;;;;;;;12.88;4.40;;;7.50;62.80;;;;;;5040589;28;20032;-67
2022/03/18 02:17:05;;;;;;;13.30;4.65;;;7.50;62.90;;;;;;5053375;28;20464;-67
2022/03/18 02:19:31;;;;;;;10.80;3.97;;;7.50;63.00;;;;;;5036728;28;20033;-67
2022/03/18 02:21:57;;;;;;;11.50;4.82;;;7.40;63.00;;;;;;5035076;28;20369;-67
2022/03/18 02:24:24;;;;;;;11.85;4.10;;;7.40;63.00;;;;;;5036468;28;20025;-68
2022/03/18 02:26:52;;;;;;;11.10;4.50;;;7.40;63.10;;;;;;5054685;28;20025;-67
2022/03/18 02:29:18;;;;;;;12.02;4.07;;;7.40;63.10;;;;;;5049633;28;20018;-67
2022/03/18 02:31:44;;;;;;;10.25;4.60;;;7.40;63.20;;;;;;5052427;28;20103;-67
2022/03/18 02:34:10;;;;;;;10.18;3.83;;;7.40;63.20;;;;;;5053749;28;20127;-68
2022/03/18 02:36:35;;;;;;;9.50;4.20;;;7.40;64.00;;;;;;5033869;28;20048;-67
2022/03/18 02:39:02;;;;;;;11.82;4.72;;;7.30;63.30;;;;;;5035595;28;20041;-67
2022/03/18 02:41:27;;;;;;;13.75;4.32;;;7.30;63.40;;;;;;5041388;28;20026;-67
2022/03/18 02:43:53;;;;;;;9.80;4.32;;;7.30;63.50;;;;;;5037522;28;20036;-67
2022/03/18 02:46:21;;;;;;;10.60;3.45;;;7.30;63.60;;;;;;5046132;28;20029;-67
2022/03/18 02:48:47;;;;;;;10.20;3.83;;;7.30;63.60;;;;;;5035756;28;20025;-67
2022/03/18 02:51:13;;;;;;;11.40;4.78;;;7.20;63.60;;;;;;5049238;28;20429;-67
2022/03/18 02:53:39;;;;;;;12.93;4.68;;;7.20;63.70;;;;;;5052584;28;20063;-68
2022/03/18 02:56:05;;;;;;;11.13;4.13;;;7.20;63.70;;;;;;5048225;28;20412;-68
2022/03/18 02:58:32;;;;;;;10.77;4.05;;;7.20;63.70;;;;;;5053334;28;20430;-68
2022/03/18 03:00:57;;;;;;;9.00;3.65;;;7.20;63.80;;;;;;5039203;28;20097;-68
2022/03/18 03:03:23;;;;;;;9.82;4.28;;;7.20;63.90;;;;;;5051784;28;20154;-68
2022/03/18 03:08:33;;;;;;;9.18;3.90;;;7.10;63.90;;;;;;5033357;28;20144;-67
2022/03/18 03:10:58;;;;;;;11.38;3.88;;;7.10;64.00;;;;;;5048978;28;20108;-67
2022/03/18 03:13:24;;;;;;;8.27;3.33;;;7.10;64.10;;;;;;5052356;28;20048;-67
2022/03/18 03:15:50;;;;;;;13.05;4.72;;;7.00;64.10;;;;;;5045095;28;20091;-67
2022/03/18 03:18:16;;;;;;;10.70;4.20;;;7.00;64.20;;;;;;5037268;28;20461;-67
2022/03/18 03:20:42;;;;;;;12.52;3.80;;;7.00;64.30;;;;;;5046209;28;20029;-67
2022/03/18 03:23:07;;;;;;;11.60;3.75;;;7.00;64.30;;;;;;5056088;28;20032;-67
2022/03/18 03:25:33;;;;;;;10.65;3.53;;;7.00;64.30;;;;;;5050056;28;20025;-68
2022/03/18 03:27:58;;;;;;;9.63;3.60;;;7.00;64.30;;;;;;5057907;28;20040;-67
2022/03/18 03:30:24;;;;;;;10.63;3.45;;;7.00;64.40;;;;;;5048724;28;20358;-67
2022/03/18 03:32:50;;;;;;;8.40;3.30;;;7.00;64.40;;;;;;5056295;28;20487;-67
2022/03/18 03:35:16;;;;;;;9.23;3.00;;;7.00;64.40;;;;;;5056026;28;20033;-67
2022/03/18 03:37:42;;;;;;;8.13;3.67;;;7.00;64.50;;;;;;5038615;28;20101;-67
2022/03/18 03:40:09;;;;;;;8.90;3.67;;;7.00;64.50;;;;;;5038829;28;20450;-68
2022/03/18 03:42:34;;;;;;;10.13;3.78;;;6.90;64.60;;;;;;5037955;28;20045;-67
2022/03/18 03:45:00;;;;;;;12.65;3.28;;;6.90;64.60;;;;;;5050744;28;20385;-67
2022/03/18 03:47:26;;;;;;;7.85;3.45;;;6.90;64.60;;;;;;5037950;28;20113;-67
2022/03/18 03:49:53;;;;;;;10.32;3.33;;;6.90;64.60;;;;;;5044720;28;20057;-67
2022/03/18 03:52:18;;;;;;;9.50;3.35;;;6.90;64.70;;;;;;5039238;28;20025;-67
2022/03/18 03:54:44;;;;;;;11.57;3.30;;;6.90;64.80;;;;;;5037747;28;20094;-67
2022/03/18 03:57:10;;;;;;;11.32;2.95;;;6.90;64.80;;;;;;5052582;28;20036;-67
2022/03/18 03:59:35;;;;;;;9.20;3.10;;;6.80;64.80;;;;;;5045550;28;20044;-67
2022/03/18 04:02:03;;;;;;;9.57;3.53;;;6.80;64.90;;;;;;5038683;28;20025;-67
2022/03/18 04:04:28;;;;;;;9.27;3.50;;;6.80;64.90;;;;;;5048732;28;20471;-67
2022/03/18 04:06:54;;;;;;;9.02;2.90;;;6.80;65.00;;;;;;5044600;28;20060;-67
2022/03/18 04:09:20;;;;;;;8.88;3.85;;;6.80;65.00;;;;;;5039080;28;20060;-67
2022/03/18 04:11:46;;;;;;;7.75;2.80;;;6.80;65.00;;;;;;5048037;28;20087;-67
2022/03/18 04:14:11;;;;;;;7.28;2.83;;;6.80;65.00;;;;;;5028047;28;20404;-67
2022/03/18 04:16:37;;;;;;;7.13;3.28;;;6.80;65.00;;;;;;5047496;28;20044;-67
2022/03/18 04:19:05;;;;;;;11.07;3.35;;;6.80;65.10;;;;;;5037103;28;20105;-67
2022/03/18 04:21:31;;;;;;;11.55;3.33;;;6.80;65.10;;;;;;5039486;28;20124;-67
2022/03/18 04:23:56;;;;;;;10.48;3.08;;;6.80;65.20;;;;;;5031731;28;20127;-67
2022/03/18 04:26:22;;;;;;;8.73;3.30;;;6.80;65.20;;;;;;5055618;28;20029;-67
2022/03/18 04:28:48;;;;;;;7.95;3.10;;;6.70;65.20;;;;;;5056495;28;20419;-67
2022/03/18 04:31:14;;;;;;;7.88;3.60;;;6.70;65.30;;;;;;5051794;28;20057;-67
2022/03/18 04:33:39;;;;;;;6.65;2.80;;;6.70;65.30;;;;;;5038029;28;20112;-67
2022/03/18 04:36:07;;;;;;;10.55;3.15;;;6.70;65.40;;;;;;5053638;28;20063;-67
2022/03/18 04:38:32;;;;;;;11.73;2.95;;;6.70;65.40;;;;;;5039284;28;20087;-67
2022/03/18 04:40:58;;;;;;;12.10;3.55;;;6.70;65.40;;;;;;5041318;28;20061;-67
2022/03/18 04:43:24;;;;;;;9.73;3.17;;;6.70;65.50;;;;;;5053967;28;20123;-67
2022/03/18 04:45:49;;;;;;;8.18;3.42;;;6.70;65.50;;;;;;5055769;28;20349;-68
2022/03/18 04:48:15;;;;;;;10.65;3.63;;;6.60;65.50;;;;;;5054124;28;20115;-67
2022/03/18 04:50:41;;;;;;;9.32;3.53;;;6.60;65.50;;;;;;5045633;28;20040;-67
2022/03/18 04:53:06;;;;;;;9.70;3.83;;;6.60;65.60;;;;;;5036388;28;20028;-67
2022/03/18 04:55:32;;;;;;;11.48;4.10;;;6.60;65.60;;;;;;5054014;28;20519;-67
2022/03/18 04:57:57;;;;;;;9.13;3.40;;;6.60;65.60;;;;;;5041011;28;20069;-67
2022/03/18 05:00:24;;;;;;;8.68;3.40;;;6.60;65.70;;;;;;5045832;28;20025;-68
2022/03/18 05:02:55;;;;;;;12.77;3.67;;;6.60;66.40;;;;;;5044188;28;20035;-67
2022/03/18 05:05:21;;;;;;;10.38;4.25;;;6.50;65.70;;;;;;5048093;28;20091;-67
2022/03/18 05:07:51;;;;;;;12.32;4.05;;;6.50;65.80;;;;;;5047223;28;20029;-67
2022/03/18 05:10:17;;;;;;;9.98;3.42;;;6.50;65.80;;;;;;5053073;28;20070;-67
2022/03/18 05:12:43;;;;;;;9.98;3.25;;;6.50;65.90;;;;;;5047053;28;20059;-67
2022/03/18 05:15:10;;;;;;;11.07;3.63;;;6.50;65.90;;;;;;5036190;28;20033;-67
2022/03/18 05:17:36;;;;;;;10.25;3.55;;;6.50;65.90;;;;;;5044697;28;20033;-67
2022/03/18 05:20:04;;;;;;;12.23;3.28;;;6.40;65.90;;;;;;5054431;28;20025;-67
2022/03/18 05:22:30;;;;;;;7.82;2.67;;;6.40;65.90;;;;;;5033799;28;20033;-67
2022/03/18 05:24:57;;;;;;;12.23;3.83;;;6.40;66.00;;;;;;5037047;28;20025;-67
2022/03/18 05:27:24;;;;;;;13.13;3.95;;;6.40;66.10;;;;;;5045627;28;20335;-67
2022/03/18 05:29:50;;;;;;;11.63;3.40;;;6.40;66.10;;;;;;5040528;28;20044;-67
2022/03/18 05:32:16;;;;;;;8.80;4.97;;;6.40;66.10;;;;;;5040925;28;20026;-67
2022/03/18 05:34:42;;;;;;;12.77;4.13;;;6.40;66.20;;;;;;5045026;28;20133;-67
2022/03/18 05:37:08;;;;;;;8.38;3.10;;;6.40;66.20;;;;;;5054403;28;20044;-67
2022/03/18 05:39:34;;;;;;;10.73;3.90;;;6.40;66.20;;;;;;5057159;28;20048;-67
2022/03/18 05:42:00;;;;;;;9.13;4.25;;;6.40;66.20;;;;;;5040540;28;20053;-67
2022/03/18 05:44:26;;;;;;;8.15;3.60;;;6.40;66.20;;;;;;5048119;28;20451;-67
2022/03/18 05:46:51;;;;;;;13.07;4.30;;;6.40;66.30;;;;;;5039719;28;20043;-67
2022/03/18 05:49:18;;;;;;;11.40;3.90;;;6.30;66.20;;;;;;5035729;28;20101;-68
2022/03/18 05:51:45;;;;;;;8.00;3.65;;;6.30;66.30;;;;;;5036520;28;20087;-67
2022/03/18 05:54:11;;;;;;;11.75;3.78;;;6.30;66.40;;;;;;5051242;28;20094;-68
2022/03/18 05:56:53;;;;;;;11.68;4.10;;;6.30;66.40;;;;;;5043377;28;20181;-67
2022/03/18 05:59:23;;;;;;;10.68;3.65;;;6.30;66.40;;;;;;5038973;28;20025;-68
2022/03/18 06:01:50;;;;;;;12.50;3.38;;;6.30;66.30;;;;;;5053198;28;20098;-69
2022/03/18 06:04:16;;;;;;;10.95;4.00;;;6.30;66.40;;;;;;5051477;28;20376;-69
2022/03/18 06:06:43;;;;;;;10.88;3.75;;;6.30;66.40;;;;;;5052510;28;20022;-68
2022/03/18 06:11:54;;;;;;;11.25;3.42;;;6.30;66.50;;;;;;5035457;28;20064;-69
2022/03/18 06:14:22;;;;;;;10.48;4.30;;;6.40;66.50;;;;;;5053150;28;20053;-69
2022/03/18 06:16:56;;;;;;;8.23;3.67;;;6.40;66.50;;;;;;5051898;28;20082;-69
2022/03/18 06:19:23;;;;;;;10.00;3.80;;;6.40;66.50;;;;;;5051008;28;20041;-68
2022/03/18 06:21:49;;;;;;;11.13;3.92;;;6.40;66.40;;;;;;5037504;28;20036;-68
2022/03/18 06:24:16;;;;;;;9.25;4.10;;;6.40;66.40;;;;;;5035074;28;20037;-69
2022/03/18 06:26:41;;;;;;;8.20;4.22;;;6.40;66.50;;;;;;5036921;28;20121;-69
2022/03/18 06:29:08;;;;;;;9.55;3.72;;;6.40;66.60;;;;;;5040436;28;20109;-68
2022/03/18 06:31:34;;;;;;;10.52;3.25;;;6.50;66.60;;;;;;5018361;28;20058;-69
2022/03/18 06:34:00;;;;;;;12.18;4.05;;;6.50;66.60;;;;;;5047168;28;20453;-69
2022/03/18 06:36:26;;;;;;;10.98;3.60;;;6.50;66.60;;;;;;5041254;28;20030;-68
2022/03/18 06:38:51;;;;;;;9.00;3.55;;;6.60;66.50;;;;;;5033182;28;20041;-69
2022/03/18 06:41:19;;;;;;;9.40;3.55;;;6.60;66.40;;;;;;5050466;28;20036;-68
2022/03/18 06:43:47;;;;;;;8.57;3.80;;;6.70;66.50;;;;;;5027796;28;20121;-68
2022/03/18 06:46:16;;;;;;;13.85;3.42;;;6.70;66.40;;;;;;5034441;28;20032;-67
2022/03/18 06:48:42;;;;;;;11.38;3.65;;;6.80;66.40;;;;;;5034999;28;20113;-67
2022/03/18 06:51:09;;;;;;;8.80;3.20;;;6.90;66.20;;;;;;5042689;28;20081;-68
2022/03/18 06:53:35;;;;;;;12.00;4.63;;;7.10;66.00;;;;;;5051675;28;20033;-69
2022/03/18 06:56:00;;;;;;;13.07;4.85;;;7.30;65.50;;;;;;5054102;28;20119;-69
2022/03/18 06:58:29;;;;;;;9.98;4.80;;;7.50;65.00;;;;;;5050670;28;20036;-69
2022/03/18 07:00:55;;;;;;;11.52;4.43;;;7.70;64.60;;;;;;5041011;28;20357;-68
2022/03/18 07:03:20;;;;;;;9.32;4.38;;;7.90;64.10;;;;;;5040556;28;20029;-68
2022/03/18 07:05:46;;;;;;;11.35;5.43;;;8.20;63.70;;;;;;5050224;28;20051;-69
2022/03/18 07:08:12;;;;;;;15.90;7.03;;;8.40;63.30;;;;;;5038526;28;20051;-69
2022/03/18 07:10:38;;;;;;;11.73;5.93;;;8.50;63.10;;;;;;5034572;28;20025;-69
2022/03/18 07:13:04;;;;;;;12.02;6.70;;;8.60;62.90;;;;;;5039994;28;20037;-68
2022/03/18 07:15:30;;;;;;;14.77;6.50;;;8.70;62.80;;;;;;5041885;28;20355;-68
2022/03/18 07:17:58;;;;;;;12.85;6.40;;;8.80;62.70;;;;;;5045725;28;20048;-67
2022/03/18 07:20:28;;;;;;;12.23;6.03;;;8.90;62.60;;;;;;5052596;28;20060;-68
2022/03/18 07:23:08;;;;;;;12.80;5.60;;;9.00;62.40;;;;;;5052634;28;20432;-69
2022/03/18 07:25:36;;;;;;;11.38;4.95;;;9.10;62.20;;;;;;5051385;28;20039;-69
2022/03/18 07:28:04;;;;;;;10.43;5.03;;;9.20;62.00;;;;;;5052057;28;20047;-69
2022/03/18 07:30:30;;;;;;;14.27;5.88;;;9.30;61.90;;;;;;5042974;28;20142;-69
2022/03/18 07:32:55;;;;;;;15.85;5.93;;;9.40;61.80;;;;;;5052972;28;20422;-68
2022/03/18 07:35:21;;;;;;;10.55;5.05;;;9.40;61.70;;;;;;5052886;28;20033;-69
2022/03/18 07:37:48;;;;;;;11.15;5.32;;;9.50;61.80;;;;;;5054449;28;20055;-69
2022/03/18 07:40:14;;;;;;;11.63;4.78;;;9.50;62.30;;;;;;5036761;28;20417;-68
2022/03/18 07:42:42;;;;;;;11.38;5.45;;;9.60;61.50;;;;;;5054275;28;20401;-69
2022/03/18 07:45:12;;;;;;;11.55;5.07;;;9.80;61.40;;;;;;5042546;28;20033;-69
2022/03/18 07:47:38;;;;;;;9.75;4.65;;;9.90;61.20;;;;;;5033299;28;20048;-69
2022/03/18 07:50:06;;;;;;;11.57;5.78;;;10.10;61.00;;;;;;5016791;28;20061;-68
2022/03/18 07:52:31;;;;;;;9.93;4.85;;;10.20;60.70;;;;;;5034320;28;20124;-69
2022/03/18 07:54:57;;;;;;;8.35;4.40;;;10.30;60.40;;;;;;5034412;28;20055;-69
2022/03/18 07:57:23;;;;;;;12.65;3.92;;;10.60;60.00;;;;;;5033246;28;20099;-69
2022/03/18 07:59:48;;;;;;;13.65;5.30;;;10.80;60.30;;;;;;5042521;28;20060;-69
2022/03/18 08:02:14;;;;;;;11.40;5.43;;;11.00;59.30;;;;;;5057201;28;20067;-69
2022/03/18 08:04:39;;;;;;;11.77;4.50;;;11.20;59.10;;;;;;5057802;28;20086;-69
2022/03/18 08:07:05;;;;;;;13.15;4.75;;;11.30;58.70;;;;;;5057772;28;20033;-69
2022/03/18 08:09:31;;;;;;;11.02;4.65;;;11.50;58.40;;;;;;5057854;28;20037;-69
2022/03/18 08:11:58;;;;;;;12.25;4.93;;;11.80;58.00;;;;;;5058041;28;20048;-69
2022/03/18 08:14:25;;;;;;;10.25;4.85;;;12.00;57.50;;;;;;5054447;28;20108;-69
2022/03/18 08:16:50;;;;;;;10.02;4.75;;;12.30;57.20;;;;;;5037475;28;20502;-69
2022/03/18 08:19:16;;;;;;;13.55;5.38;;;12.50;56.90;;;;;;5037509;28;20140;-69
2022/03/18 08:21:42;;;;;;;8.52;4.25;;;12.70;56.40;;;;;;5036942;28;20025;-69
2022/03/18 08:24:09;;;;;;;11.63;4.43;;;12.90;56.10;;;;;;5037439;28;20354;-69
2022/03/18 08:26:37;;;;;;;9.40;4.13;;;13.10;55.60;;;;;;5037602;28;20495;-69
2022/03/18 08:29:07;;;;;;;11.50;4.68;;;13.30;55.30;;;;;;5037687;28;20087;-69
2022/03/18 08:31:33;;;;;;;12.75;4.88;;;13.40;55.00;;;;;;5039219;28;20045;-69
2022/03/18 08:33:59;;;;;;;11.73;5.05;;;13.70;54.70;;;;;;5057101;28;20143;-69
2022/03/18 08:36:25;;;;;;;12.43;5.38;;;13.80;54.30;;;;;;5056190;28;20441;-69
2022/03/18 08:38:50;;;;;;;13.70;5.28;;;14.00;53.80;;;;;;5051417;28;20124;-69
2022/03/18 08:41:16;;;;;;;12.23;5.53;;;14.20;53.40;;;;;;5035964;28;20064;-67
2022/03/18 08:43:41;;;;;;;13.80;5.55;;;14.40;53.00;;;;;;5038571;28;20120;-67
2022/03/18 08:46:07;;;;;;;11.77;5.43;;;14.60;52.50;;;;;;5055947;28;20021;-69
2022/03/18 08:48:32;;;;;;;15.65;5.05;;;14.70;52.10;;;;;;5046697;28;20336;-70
2022/03/18 08:50:58;;;;;;;12.98;4.75;;;14.90;51.70;;;;;;5041280;28;20075;-68
2022/03/18 08:53:24;;;;;;;11.63;4.75;;;15.00;51.20;;;;;;5045493;28;20037;-68
2022/03/18 08:55:49;;;;;;;11.65;4.68;;;15.10;50.80;;;;;;5042453;28;20373;-67
2022/03/18 08:58:15;;;;;;;10.55;4.65;;;15.20;50.50;;;;;;5037404;28;20044;-66
2022/03/18 09:00:41;;;;;;;10.68;4.63;;;15.30;50.10;;;;;;5060543;28;20063;-66
2022/03/18 09:03:07;;;;;;;15.38;4.93;;;15.40;49.80;;;;;;5056173;28;20036;-66
2022/03/18 09:05:32;;;;;;;10.93;4.10;;;15.40;49.40;;;;;;5043824;28;20059;-65
2022/03/18 09:07:58;;;;;;;11.35;3.72;;;15.50;49.10;;;;;;5040986;28;20021;-64
2022/03/18 09:10:24;;;;;;;11.32;4.32;;;15.70;48.80;;;;;;5054592;28;20393;-64
2022/03/18 09:12:55;;;;;;;9.07;3.90;;;15.80;48.50;;;;;;5055166;28;20059;-64
2022/03/18 09:15:21;;;;;;;9.63;3.95;;;15.90;48.00;;;;;;5056484;28;20037;-64
2022/03/18 09:17:47;;;;;;;7.90;4.25;;;16.00;47.80;;;;;;5056233;28;20413;-64
2022/03/18 09:20:13;;;;;;;9.45;3.67;;;16.10;47.60;;;;;;5023045;28;20409;-64
2022/03/18 09:22:39;;;;;;;12.90;3.78;;;16.20;47.50;;;;;;5043180;28;20048;-64
2022/03/18 09:25:06;;;;;;;12.07;4.03;;;16.30;47.30;;;;;;5056262;28;20052;-64
2022/03/18 09:27:32;;;;;;;8.13;3.47;;;16.40;47.10;;;;;;5056272;28;20032;-64
2022/03/18 09:29:59;;;;;;;10.70;3.75;;;16.50;46.80;;;;;;5055000;28;20156;-64
2022/03/18 09:32:26;;;;;;;8.95;3.65;;;16.60;46.40;;;;;;5056069;28;20035;-64
2022/03/18 09:34:52;;;;;;;8.57;3.28;;;16.60;46.20;;;;;;5055953;28;20029;-64
2022/03/18 09:37:18;;;;;;;9.27;2.90;;;16.60;45.90;;;;;;5054210;28;20029;-64
2022/03/18 09:39:43;;;;;;;8.00;3.33;;;16.70;45.50;;;;;;5055937;28;20455;-64
2022/03/18 09:42:09;;;;;;;9.15;3.05;;;16.70;45.10;;;;;;5055519;28;20021;-65
2022/03/18 09:44:39;;;;;;;6.85;3.03;;;16.70;44.90;;;;;;5055858;28;20028;-65
2022/03/18 09:47:06;;;;;;;7.97;2.78;;;16.70;44.70;;;;;;5055811;28;20033;-65
2022/03/18 09:49:34;;;;;;;8.95;2.92;;;16.80;44.20;;;;;;5055837;28;20095;-65
2022/03/18 09:52:00;;;;;;;7.68;2.63;;;16.90;44.00;;;;;;5053987;28;20481;-65
2022/03/18 09:54:28;;;;;;;7.60;2.78;;;17.00;44.00;;;;;;5035808;28;20057;-65
2022/03/18 09:56:54;;;;;;;7.45;2.47;;;17.10;43.90;;;;;;5035907;28;20083;-65
2022/03/18 09:59:22;;;;;;;6.75;2.35;;;17.20;43.80;;;;;;5034467;28;20030;-65
2022/03/18 10:01:47;;;;;;;9.60;2.90;;;17.30;43.50;;;;;;5035729;28;20030;-65
2022/03/18 10:04:14;;;;;;;7.90;2.58;;;17.40;43.30;;;;;;5034981;28;20083;-65
2022/03/18 10:06:42;;;;;;;7.97;2.75;;;17.40;43.10;;;;;;5035580;28;20113;-65
2022/03/18 10:09:09;;;;;;;8.13;2.35;;;17.40;42.80;;;;;;5052732;28;20032;-65
2022/03/18 10:11:42;;;;;;;9.20;2.50;;;17.40;42.80;;;;;;5044057;28;20087;-66
2022/03/18 10:14:13;;;;;;;8.32;2.13;;;17.50;42.90;;;;;;5035618;28;20051;-65
2022/03/18 10:16:50;;;;;;;5.72;2.17;;;17.60;42.90;;;;;;5035898;28;20358;-66
2022/03/18 10:19:21;;;;;;;7.30;2.47;;;17.60;43.40;;;;;;5017788;28;20032;-66
2022/03/18 10:22:02;;;;;;;5.97;2.45;;;17.70;42.80;;;;;;5034282;28;20037;-65
2022/03/18 10:24:30;;;;;;;9.35;2.40;;;17.80;42.70;;;;;;5046033;28;20052;-65
2022/03/18 10:27:17;;;;;;;9.43;2.63;;;17.80;42.50;;;;;;5035133;28;20024;-65
2022/03/18 10:29:49;;;;;;;6.47;2.15;;;17.80;42.50;;;;;;5034997;28;20116;-66
2022/03/18 10:32:46;;;;;;;7.53;2.28;;;17.90;42.40;;;;;;5036333;28;20538;-66
2022/03/18 10:38:35;;;;;;;6.95;2.15;;;17.90;42.40;;;;;;5042190;28;20036;-65
2022/03/18 10:41:07;;;;;;;8.00;2.30;;;17.90;42.40;;;;;;5040868;28;20030;-66
2022/03/18 10:43:53;;;;;;;7.85;2.30;;;18.00;42.50;;;;;;5044892;28;20057;-66
2022/03/18 10:46:19;;;;;;;6.38;2.33;;;18.10;42.50;;;;;;5054193;28;20025;-65
2022/03/18 10:49:03;;;;;;;9.45;2.20;;;18.10;42.60;;;;;;5043811;28;20040;-66
2022/03/18 10:51:30;;;;;;;9.88;2.47;;;18.10;42.40;;;;;;5044589;28;20032;-66
2022/03/18 10:53:56;;;;;;;9.02;2.65;;;18.20;42.60;;;;;;5053194;28;20029;-66
2022/03/18 10:56:22;;;;;;;7.95;2.88;;;18.30;42.50;;;;;;5010545;28;20026;-66
2022/03/18 10:58:48;;;;;;;7.95;2.50;;;18.20;42.50;;;;;;5051269;28;20025;-66
2022/03/18 11:01:15;;;;;;;9.07;2.70;;;18.20;42.50;;;;;;5053337;28;20037;-66
2022/03/18 11:03:42;;;;;;;8.18;2.70;;;18.20;42.50;;;;;;5051812;28;20029;-66
2022/03/18 11:06:09;;;;;;;9.52;2.63;;;18.30;42.60;;;;;;5051331;28;20018;-66
2022/03/18 11:08:45;;;;;;;6.43;2.13;;;18.30;42.70;;;;;;5040031;28;20502;-65
2022/03/18 11:11:20;;;;;;;8.57;3.03;;;18.40;42.60;;;;;;5067976;28;20034;-66
2022/03/18 11:13:48;;;;;;;6.78;2.38;;;18.40;42.60;;;;;;5031708;28;20037;-66
2022/03/18 11:16:21;;;;;;;9.57;3.08;;;18.50;42.70;;;;;;5044589;28;20037;-66
2022/03/18 11:18:48;;;;;;;6.95;2.53;;;18.40;42.60;;;;;;5036652;28;20470;-66
2022/03/18 11:21:16;;;;;;;6.53;2.70;;;18.30;42.80;;;;;;5037953;28;20112;-66
2022/03/18 11:23:45;;;;;;;5.95;2.17;;;18.30;42.90;;;;;;5035044;28;20121;-66
2022/03/18 11:26:16;;;;;;;11.30;2.47;;;18.40;43.00;;;;;;5045079;28;20022;-66
2022/03/18 11:28:42;;;;;;;8.00;2.47;;;18.40;42.90;;;;;;5034000;28;20033;-66
2022/03/18 11:31:10;;;;;;;7.13;2.53;;;18.40;42.90;;;;;;5053468;28;20409;-66
2022/03/18 11:33:39;;;;;;;9.98;2.70;;;18.40;42.90;;;;;;5051824;28;20033;-65
2022/03/18 11:36:11;;;;;;;7.47;2.65;;;18.40;42.80;;;;;;5040516;28;20033;-66
2022/03/18 11:38:59;;;;;;;7.80;2.55;;;18.40;42.90;;;;;;5038335;28;20025;-65
2022/03/18 11:41:45;;;;;;;9.70;3.17;;;18.40;43.00;;;;;;5040463;28;20056;-66
2022/03/18 11:44:31;;;;;;;8.57;2.70;;;18.40;42.90;;;;;;5038000;28;20397;-67
2022/03/18 11:47:23;;;;;;;8.13;2.58;;;18.50;43.00;;;;;;5050535;28;20040;-68
2022/03/18 11:49:50;;;;;;;8.77;2.65;;;18.40;42.90;;;;;;5043479;28;20029;-68
2022/03/18 11:52:16;;;;;;;8.45;2.88;;;18.40;43.00;;;;;;5039200;28;20036;-68
2022/03/18 11:54:58;;;;;;;8.80;3.08;;;18.40;43.10;;;;;;5038040;28;20033;-68
2022/03/18 11:57:31;;;;;;;9.50;3.15;;;18.40;43.30;;;;;;5038414;28;20336;-67
2022/03/18 12:00:00;;;;;;;7.43;2.40;;;18.40;43.00;;;;;;5053664;28;20116;-67
2022/03/18 12:02:38;;;;;;;8.10;2.75;;;18.40;43.10;;;;;;5037624;28;20102;-66
2022/03/18 12:05:05;;;;;;;8.20;3.20;;;18.40;43.20;;;;;;5051830;28;20039;-65
2022/03/18 12:07:51;;;;;;;8.15;2.63;;;18.30;43.20;;;;;;5052175;28;20037;-66
2022/03/18 12:10:37;;;;;;;9.50;3.28;;;18.30;43.40;;;;;;5040916;28;20417;-67
2022/03/18 12:13:03;;;;;;;7.30;3.00;;;18.30;43.30;;;;;;5031854;28;20124;-66
2022/03/18 12:15:30;;;;;;;7.40;3.20;;;18.20;43.50;;;;;;5057629;28;20051;-66
2022/03/18 12:17:58;;;;;;;7.05;2.95;;;18.20;43.50;;;;;;5043945;28;20031;-66
2022/03/18 12:20:30;;;;;;;12.27;3.20;;;18.10;43.50;;;;;;5039116;28;20362;-66
2022/03/18 12:22:58;;;;;;;9.82;3.03;;;18.00;43.60;;;;;;5050127;28;20033;-66
2022/03/18 12:25:24;;;;;;;6.32;2.95;;;18.00;43.70;;;;;;5044685;28;20045;-65
2022/03/18 12:27:51;;;;;;;9.90;3.20;;;17.90;43.80;;;;;;5036322;28;20022;-66
2022/03/18 12:30:19;;;;;;;9.10;2.75;;;17.90;43.80;;;;;;5051055;28;20048;-66
2022/03/18 12:33:03;;;;;;;8.20;2.88;;;17.90;44.40;;;;;;5057214;28;20064;-66
2022/03/18 12:35:44;;;;;;;7.63;2.97;;;17.90;43.90;;;;;;5056279;28;20098;-66
2022/03/18 12:38:13;;;;;;;8.18;3.20;;;17.80;44.40;;;;;;5055864;28;20077;-66
2022/03/18 12:40:56;;;;;;;8.60;2.67;;;17.70;44.10;;;;;;5054276;28;20033;-66
2022/03/18 12:43:24;;;;;;;9.05;3.20;;;17.70;44.20;;;;;;5055237;28;20036;-66
2022/03/18 12:45:50;;;;;;;8.40;2.65;;;17.60;44.30;;;;;;5037536;28;20451;-66
2022/03/18 12:48:21;;;;;;;10.15;2.92;;;17.60;44.30;;;;;;5035053;28;20026;-66
2022/03/18 12:50:57;;;;;;;9.85;2.75;;;17.60;44.40;;;;;;5055559;28;20021;-66
2022/03/18 12:53:30;;;;;;;6.78;3.03;;;17.60;44.50;;;;;;5050308;28;20060;-66
2022/03/18 12:56:06;;;;;;;6.60;2.70;;;17.50;45.20;;;;;;5044008;28;20036;-66
2022/03/18 12:58:40;;;;;;;9.52;2.80;;;17.50;44.80;;;;;;5037667;28;20033;-66
2022/03/18 13:01:08;;;;;;;7.63;2.85;;;17.50;44.90;;;;;;5052697;28;20038;-66
2022/03/18 13:03:34;;;;;;;9.82;2.92;;;17.50;44.80;;;;;;5019425;28;20056;-66
2022/03/18 13:06:18;;;;;;;6.25;2.70;;;17.40;44.80;;;;;;5037391;28;20025;-66